Time;durP1;ratioP1;P1;durP2;ratioP2;P2;SDS_P1;SDS_P2;PMS_P1;PMS_P2;Temp;Humidity;BMP_temperature;BMP_pressure;BME280_temperature;BME280_humidity;BME280_pressure;Samples;Min_cycle;Max_cycle;Signal;HPM_P1;HPM_P2
2022/06/21 00:00:04;;;;;;;2.33;1.40;;;;;;;13.13;92.58;100788.72;5096706;28;20480;-71
2022/06/21 00:02:32;;;;;;;3.70;2.30;;;;;;;13.01;93.55;100785.78;5096720;28;20423;-72
2022/06/21 00:04:58;;;;;;;1.77;1.30;;;;;;;13.01;93.82;100795.84;5096806;28;20566;-72
2022/06/21 00:07:28;;;;;;;2.20;2.00;;;;;;;13.00;94.45;100788.81;5096799;28;20488;-72
2022/06/21 00:09:55;;;;;;;1.97;1.47;;;;;;;13.01;94.42;100784.97;5096808;28;20470;-72
2022/06/21 00:12:22;;;;;;;2.40;1.70;;;;;;;13.01;94.31;100784.97;5096507;28;20478;-71
2022/06/21 00:14:49;;;;;;;2.80;1.40;;;;;;;12.95;94.77;100784.31;5096713;28;20519;-71
2022/06/21 00:17:20;;;;;;;2.10;1.67;;;;;;;12.98;94.07;100778.25;5096632;28;20460;-71
2022/06/21 00:19:47;;;;;;;1.60;1.33;;;;;;;12.96;93.77;100782.41;5096706;28;20507;-71
2022/06/21 00:22:15;;;;;;;2.70;1.90;;;;;;;12.94;94.11;100790.06;5096604;28;20448;-73
2022/06/21 00:24:43;;;;;;;5.83;1.37;;;;;;;12.96;94.17;100791.34;5096213;28;20559;-72
2022/06/21 00:27:13;;;;;;;2.73;1.97;;;;;;;12.91;94.02;100785.25;5096020;28;20566;-73
2022/06/21 00:29:39;;;;;;;3.00;1.80;;;;;;;12.91;94.20;100785.25;5096738;28;20807;-72
2022/06/21 00:32:10;;;;;;;3.33;2.10;;;;;;;12.90;94.22;100784.44;5096090;28;20523;-74
2022/06/21 00:34:38;;;;;;;1.53;1.27;;;;;;;12.88;94.27;100786.66;5096421;28;20865;-74
2022/06/21 00:37:05;;;;;;;5.50;2.07;;;;;;;12.85;94.49;100785.38;5095982;28;20543;-74
2022/06/21 00:39:32;;;;;;;1.57;1.37;;;;;;;12.83;94.90;100787.59;5096316;28;20877;-74
2022/06/21 00:42:04;;;;;;;2.50;1.90;;;;;;;12.78;95.01;100786.94;5096413;28;20448;-74
2022/06/21 00:44:37;;;;;;;1.90;1.60;;;;;;;12.81;94.36;100786.31;5108284;22;20488;-73
2022/06/21 00:47:07;;;;;;;2.07;1.57;;;;;;;12.83;94.38;100787.59;5076041;28;20859;-74
2022/06/21 00:49:40;;;;;;;2.03;1.70;;;;;;;12.80;94.73;100790.97;5076144;28;20447;-73
2022/06/21 00:52:16;;;;;;;4.60;1.73;;;;;;;12.83;95.26;100795.75;5075899;28;20457;-73
2022/06/21 00:54:50;;;;;;;7.93;2.30;;;;;;;12.87;95.08;100799.47;5075863;28;20527;-73
2022/06/21 00:57:21;;;;;;;3.60;1.83;;;;;;;12.90;95.05;100786.38;5075931;28;20487;-72
2022/06/21 00:59:53;;;;;;;3.47;1.70;;;;;;;12.91;95.03;100791.50;5075761;28;20479;-75
2022/06/21 01:02:24;;;;;;;1.53;1.43;;;;;;;12.90;94.56;100789.09;5075419;28;20422;-72
2022/06/21 01:04:54;;;;;;;2.80;1.90;;;;;;;12.87;94.28;100795.94;5075618;28;20512;-74
2022/06/21 01:07:23;;;;;;;5.87;2.20;;;;;;;12.83;94.46;100795.75;5074597;28;20425;-73
2022/06/21 01:09:53;;;;;;;2.50;2.00;;;;;;;12.78;95.13;100792.38;5075606;28;20532;-73
2022/06/21 01:12:23;;;;;;;2.50;1.83;;;;;;;12.80;95.22;100798.31;5075901;28;20457;-72
2022/06/21 01:14:56;;;;;;;1.60;1.30;;;;;;;12.76;95.65;100789.16;5075371;28;20470;-73
2022/06/21 01:17:22;;;;;;;1.63;1.50;;;;;;;12.75;95.58;100791.09;5075573;28;20528;-72
2022/06/21 01:19:56;;;;;;;1.63;1.53;;;;;;;12.77;95.05;100801.66;5075301;28;20442;-72
2022/06/21 01:22:34;;;;;;;2.13;1.60;;;;;;;12.77;95.70;100791.56;5075424;28;20450;-72
2022/06/21 01:25:19;;;;;;;3.80;1.97;;;;;;;12.69;95.89;100792.31;5074986;28;20488;-73
2022/06/21 01:27:47;;;;;;;3.50;2.10;;;;;;;12.68;96.58;100793.44;5075483;28;20449;-72
2022/06/21 01:30:14;;;;;;;2.83;2.30;;;;;;;12.72;97.13;100790.91;5074945;28;20445;-72
2022/06/21 01:32:40;;;;;;;2.20;1.80;;;;;;;12.79;96.55;100802.94;5074787;28;20795;-73
2022/06/21 01:35:13;;;;;;;8.70;1.90;;;;;;;12.79;96.34;100792.09;5075153;28;20461;-73
2022/06/21 01:37:41;;;;;;;2.00;1.40;;;;;;;12.73;96.67;100790.59;5075241;28;20520;-72
2022/06/21 01:40:12;;;;;;;4.40;2.00;;;;;;;12.75;97.08;100795.69;5075047;28;20442;-72
2022/06/21 01:42:41;;;;;;;3.27;1.90;;;;;;;12.81;97.50;100798.00;5074921;28;20429;-72
2022/06/21 01:45:16;;;;;;;4.60;1.60;;;;;;;12.85;96.65;100804.41;5074610;28;21141;-72
2022/06/21 01:47:47;;;;;;;1.97;1.37;;;;;;;12.81;96.84;100797.19;5074881;28;20524;-73
2022/06/21 01:50:14;;;;;;;2.83;1.70;;;;;;;12.81;97.21;100789.84;5074712;28;20464;-72
2022/06/21 01:52:46;;;;;;;6.63;2.20;;;;;;;12.77;96.66;100797.00;5074717;28;20456;-72
2022/06/21 01:55:17;;;;;;;3.50;2.10;;;;;;;12.75;96.60;100793.81;5074291;28;20544;-71
2022/06/21 01:57:43;;;;;;;6.00;2.60;;;;;;;12.71;96.88;100795.53;5074256;28;20440;-72
2022/06/21 02:00:13;;;;;;;3.73;2.10;;;;;;;12.68;96.90;100804.31;5074517;28;20489;-71
2022/06/21 02:02:44;;;;;;;3.37;1.70;;;;;;;12.73;97.30;100806.88;5074536;28;20495;-71
2022/06/21 02:05:14;;;;;;;3.80;2.13;;;;;;;12.66;97.08;100800.28;5074141;28;20983;-72
2022/06/21 02:07:46;;;;;;;2.43;1.70;;;;;;;12.60;97.89;100797.69;5074438;28;20505;-71
2022/06/21 02:10:19;;;;;;;5.20;1.83;;;;;;;12.58;98.20;100815.44;5074109;28;21006;-71
2022/06/21 02:12:51;;;;;;;2.40;2.07;;;;;;;12.63;98.25;100809.88;5074288;28;20426;-71
2022/06/21 02:15:35;;;;;;;7.73;2.50;;;;;;;12.60;97.85;100808.56;5074637;28;20421;-71
2022/06/21 02:18:04;;;;;;;4.27;1.83;;;;;;;12.54;98.00;100809.00;5073842;28;20479;-72
2022/06/21 02:20:37;;;;;;;2.33;1.60;;;;;;;12.49;97.88;100809.13;5073876;28;20437;-71
2022/06/21 02:23:05;;;;;;;3.77;2.20;;;;;;;12.48;98.95;100805.59;5073982;28;20421;-71
2022/06/21 02:25:32;;;;;;;3.43;1.73;;;;;;;12.47;98.16;100804.00;5074076;28;20481;-72
2022/06/21 02:28:09;;;;;;;4.60;2.00;;;;;;;12.47;98.14;100803.19;5074054;28;20445;-72
2022/06/21 02:30:37;;;;;;;2.60;2.27;;;;;;;12.46;98.26;100798.88;5074079;28;20460;-70
2022/06/21 02:33:06;;;;;;;2.20;1.90;;;;;;;12.43;98.07;100800.28;5074130;28;20468;-71
2022/06/21 02:35:39;;;;;;;2.33;1.83;;;;;;;12.43;97.97;100803.00;5073881;28;20496;-71
2022/06/21 02:38:11;;;;;;;2.27;1.70;;;;;;;12.40;98.12;100811.78;5073832;28;20438;-71
2022/06/21 02:40:45;;;;;;;2.30;2.07;;;;;;;12.33;98.53;100809.47;5073859;28;20434;-71
2022/06/21 02:43:17;;;;;;;3.13;2.10;;;;;;;12.28;99.13;100817.75;5073649;28;20421;-72
2022/06/21 02:45:50;;;;;;;3.20;2.07;;;;;;;12.27;100.00;100813.44;5073722;28;20497;-74
2022/06/21 02:48:22;;;;;;;2.43;1.80;;;;;;;12.30;99.04;100810.06;5073571;28;20466;-74
2022/06/21 02:50:54;;;;;;;4.60;1.83;;;;;;;12.26;99.14;100819.97;5073693;28;20429;-74
2022/06/21 02:53:24;;;;;;;5.30;2.10;;;;;;;12.24;99.25;100816.75;5073954;28;20457;-74
2022/06/21 02:55:58;;;;;;;2.77;1.77;;;;;;;12.27;99.35;100816.16;5074256;28;20472;-72
2022/06/21 02:58:29;;;;;;;5.33;2.10;;;;;;;12.24;99.84;100819.47;5073378;28;20520;-72
2022/06/21 03:01:00;;;;;;;5.30;2.07;;;;;;;12.23;100.00;100808.91;5073500;28;20421;-72
2022/06/21 03:03:30;;;;;;;8.73;2.50;;;;;;;12.20;100.00;100820.38;5073435;28;20548;-71
2022/06/21 03:06:07;;;;;;;2.10;1.67;;;;;;;12.20;100.00;100818.47;5073547;28;20418;-70
2022/06/21 03:08:35;;;;;;;3.13;2.30;;;;;;;12.16;100.00;100816.66;5073163;28;20907;-70
2022/06/21 03:11:02;;;;;;;2.90;2.30;;;;;;;12.11;100.00;100812.97;5073384;28;20453;-70
2022/06/21 03:13:33;;;;;;;3.57;2.10;;;;;;;12.12;100.00;100819.19;5073354;28;20543;-70
2022/06/21 03:16:06;;;;;;;2.13;1.87;;;;;;;12.10;100.00;100818.69;5072988;28;20913;-72
2022/06/21 03:18:38;;;;;;;3.40;2.50;;;;;;;12.12;100.00;100813.75;5073447;28;20866;-71
2022/06/21 03:21:06;;;;;;;5.43;2.23;;;;;;;12.12;100.00;100814.56;5073285;28;20433;-72
2022/06/21 03:23:34;;;;;;;3.47;2.63;;;;;;;12.10;100.00;100816.00;5073261;28;20556;-71
2022/06/21 03:26:03;;;;;;;2.00;1.80;;;;;;;12.14;100.00;100816.19;5072967;28;20848;-72
2022/06/21 03:28:33;;;;;;;2.20;2.00;;;;;;;12.19;100.00;100808.72;5073194;28;20484;-71
2022/06/21 03:31:13;;;;;;;4.80;2.27;;;;;;;12.18;100.00;100820.69;5077020;28;20468;-71
2022/06/21 03:33:42;;;;;;;7.83;2.30;;;;;;;12.16;100.00;100825.63;5079487;28;20970;-70
2022/06/21 03:36:12;;;;;;;3.73;2.23;;;;;;;12.10;100.00;100826.84;5079676;28;20592;-71
2022/06/21 03:38:43;;;;;;;4.10;2.93;;;;;;;12.18;100.00;100825.34;5079742;28;20540;-71
2022/06/21 03:44:00;;;;;;;2.30;2.10;;;;;;;12.24;100.00;100826.81;5079355;28;20471;-72
2022/06/21 03:46:37;;;;;;;3.93;2.20;;;;;;;12.30;100.00;100825.56;5079781;28;20436;-71
2022/06/21 03:49:09;;;;;;;2.87;2.30;;;;;;;12.34;100.00;100827.38;5079385;28;20431;-70
2022/06/21 03:51:40;;;;;;;2.97;2.17;;;;;;;12.39;100.00;100823.72;5079445;28;20929;-71
2022/06/21 03:54:11;;;;;;;3.90;2.30;;;;;;;12.43;100.00;100834.78;5079585;28;20547;-71
2022/06/21 03:56:45;;;;;;;4.40;2.30;;;;;;;12.51;100.00;100843.03;5079672;28;20453;-72
2022/06/21 03:59:19;;;;;;;7.90;2.70;;;;;;;12.52;100.00;100844.63;5079745;28;20509;-72
2022/06/21 04:01:54;;;;;;;3.67;2.40;;;;;;;12.62;100.00;100852.56;5079634;28;20460;-72
2022/06/21 04:04:29;;;;;;;14.73;2.90;;;;;;;12.60;100.00;100843.88;5079246;28;21033;-73
2022/06/21 04:07:04;;;;;;;3.47;2.10;;;;;;;12.63;100.00;100850.63;5079595;28;20443;-73
2022/06/21 04:09:42;;;;;;;3.87;3.03;;;;;;;12.72;100.00;100850.69;5079540;28;20425;-73
2022/06/21 04:12:14;;;;;;;3.07;2.10;;;;;;;12.79;100.00;100848.34;5079785;28;20433;-72
2022/06/21 04:14:48;;;;;;;3.03;2.00;;;;;;;12.83;100.00;100855.56;5079137;28;21065;-72
2022/06/21 04:17:21;;;;;;;4.50;2.73;;;;;;;12.90;100.00;100855.13;5079580;28;20524;-73
2022/06/21 04:19:53;;;;;;;4.20;2.60;;;;;;;12.82;100.00;100856.69;5079202;28;20468;-71
2022/06/21 04:22:28;;;;;;;2.13;1.90;;;;;;;12.90;100.00;100860.56;5079452;28;20436;-72
2022/06/21 04:25:03;;;;;;;5.70;2.40;;;;;;;13.01;100.00;100867.34;5079368;28;20535;-74
2022/06/21 04:27:36;;;;;;;4.40;2.17;;;;;;;13.03;99.78;100864.34;5079316;28;20511;-72
2022/06/21 04:30:06;;;;;;;6.37;2.70;;;;;;;13.05;99.89;100868.34;5079034;28;20457;-74
2022/06/21 04:32:39;;;;;;;3.67;2.00;;;;;;;13.06;99.44;100866.44;5079176;28;20518;-72
2022/06/21 04:35:11;;;;;;;6.40;2.80;;;;;;;13.05;100.00;100879.22;5079105;28;20519;-73
2022/06/21 04:37:44;;;;;;;3.27;2.30;;;;;;;13.17;99.71;100881.38;5079270;28;20440;-72
2022/06/21 04:40:18;;;;;;;1.93;1.73;;;;;;;13.26;99.06;100887.72;5079304;28;20509;-71
2022/06/21 04:42:50;;;;;;;2.30;1.70;;;;;;;13.26;99.45;100887.72;5075433;28;20880;-71
2022/06/21 04:45:25;;;;;;;3.77;2.23;;;;;;;13.30;98.94;100883.25;5075613;28;20568;-71
2022/06/21 04:48:04;;;;;;;5.07;2.10;;;;;;;13.32;98.86;100889.16;5076723;28;20898;-72
2022/06/21 04:50:35;;;;;;;3.60;2.00;;;;;;;13.36;98.71;100897.50;5076208;28;20508;-72
2022/06/21 04:53:10;;;;;;;2.60;2.10;;;;;;;13.36;98.44;100895.59;5075684;28;20970;-73
2022/06/21 04:55:44;;;;;;;3.17;2.40;;;;;;;13.40;98.30;100890.34;5075599;28;21048;-72
2022/06/21 04:58:11;;;;;;;2.10;1.80;;;;;;;13.50;98.18;100895.53;5075865;28;20425;-72
2022/06/21 05:00:38;;;;;;;5.63;2.20;;;;;;;13.50;98.25;100890.09;5075771;28;20449;-72
2022/06/21 05:03:16;;;;;;;2.20;1.70;;;;;;;13.61;98.06;100893.31;5075733;28;20476;-72
2022/06/21 05:05:43;;;;;;;3.97;2.70;;;;;;;13.60;97.07;100903.41;5075413;28;20483;-72
2022/06/21 05:08:15;;;;;;;3.60;2.40;;;;;;;13.69;97.33;100914.34;5075590;28;20453;-73
2022/06/21 05:10:44;;;;;;;6.10;2.07;;;;;;;13.76;96.41;100909.22;5075667;28;20436;-72
2022/06/21 05:13:23;;;;;;;10.97;2.87;;;;;;;13.73;96.30;100911.81;5075418;28;20516;-73
2022/06/21 05:15:51;;;;;;;7.10;2.83;;;;;;;13.76;95.93;100917.41;5075435;28;20910;-74
2022/06/21 05:18:25;;;;;;;4.40;2.07;;;;;;;13.73;96.09;100915.31;5075448;28;20536;-73
2022/06/21 05:20:54;;;;;;;5.43;2.63;;;;;;;13.72;96.19;100916.41;5075433;28;20892;-74
2022/06/21 05:23:25;;;;;;;2.63;2.10;;;;;;;13.78;96.39;100923.34;5075383;28;20492;-73
2022/06/21 05:25:53;;;;;;;4.33;1.90;;;;;;;13.77;96.38;100921.75;5075098;28;20426;-75
2022/06/21 05:28:26;;;;;;;10.30;2.70;;;;;;;13.83;95.88;100928.66;5075238;28;20473;-73
2022/06/21 05:30:56;;;;;;;4.57;2.30;;;;;;;13.89;95.71;100930.09;5074850;28;20942;-74
2022/06/21 05:33:31;;;;;;;4.20;2.73;;;;;;;14.02;95.40;100931.13;5075117;28;20545;-73
2022/06/21 05:35:58;;;;;;;3.10;2.37;;;;;;;14.09;94.71;100922.50;5074643;28;20477;-73
2022/06/21 05:38:29;;;;;;;1.93;1.80;;;;;;;14.09;94.95;100931.47;5074947;28;20849;-72
2022/06/21 05:40:58;;;;;;;2.40;1.87;;;;;;;14.08;94.42;100938.03;5074536;28;20432;-73
2022/06/21 05:43:31;;;;;;;3.10;2.43;;;;;;;14.14;94.42;100941.41;5074659;28;20564;-73
2022/06/21 05:46:01;;;;;;;3.97;2.87;;;;;;;14.25;94.12;100937.25;5074680;28;21085;-71
2022/06/21 05:48:34;;;;;;;2.83;1.87;;;;;;;14.25;93.14;100941.91;5074855;28;20444;-71
2022/06/21 05:51:04;;;;;;;2.50;1.67;;;;;;;14.25;93.04;100942.72;5074752;28;20513;-72
2022/06/21 05:53:34;;;;;;;4.97;2.20;;;;;;;14.34;92.97;100949.03;5074637;28;20548;-72
2022/06/21 05:56:05;;;;;;;4.73;2.80;;;;;;;14.30;93.12;100948.03;5074506;28;20552;-71
2022/06/21 05:58:37;;;;;;;5.40;2.40;;;;;;;14.33;93.42;100944.66;5074133;28;20468;-73
2022/06/21 06:01:09;;;;;;;3.10;2.10;;;;;;;14.50;92.65;100943.13;5074787;28;20508;-76
2022/06/21 06:03:43;;;;;;;4.43;2.40;;;;;;;14.44;91.65;100942.47;5075020;28;20540;-75
2022/06/21 06:06:13;;;;;;;3.90;1.70;;;;;;;14.40;92.10;100944.22;5074567;28;20945;-72
2022/06/21 06:08:44;;;;;;;1.93;1.70;;;;;;;14.29;92.84;100943.69;5074753;28;20434;-73
2022/06/21 06:11:14;;;;;;;5.20;2.50;;;;;;;14.43;93.70;100945.47;5074683;28;20491;-72
2022/06/21 06:13:43;;;;;;;3.23;1.90;;;;;;;14.58;93.87;100947.78;5074386;28;20465;-74
2022/06/21 06:16:26;;;;;;;4.47;2.20;;;;;;;14.67;92.10;100947.81;5074350;28;20568;-74
2022/06/21 06:19:01;;;;;;;5.90;2.10;;;;;;;14.61;91.52;100945.25;5074291;28;20878;-74
2022/06/21 06:21:32;;;;;;;3.90;2.03;;;;;;;14.71;91.11;100944.13;5074326;28;20490;-76
2022/06/21 06:24:04;;;;;;;2.10;1.73;;;;;;;14.75;90.82;100944.28;5074252;28;20534;-75
2022/06/21 06:26:34;;;;;;;4.60;2.33;;;;;;;14.89;89.85;100940.28;5073890;28;20429;-74
2022/06/21 06:29:07;;;;;;;7.40;1.80;;;;;;;14.97;90.52;100946.84;5073764;28;20811;-74
2022/06/21 06:31:40;;;;;;;3.13;2.00;;;;;;;15.08;90.22;100944.59;5074069;28;20429;-74
2022/06/21 06:34:15;;;;;;;4.90;2.03;;;;;;;15.29;88.69;100944.72;5073855;28;20548;-70
2022/06/21 06:36:45;;;;;;;3.00;1.50;;;;;;;15.33;88.08;100942.97;5074152;28;20471;-75
2022/06/21 06:39:21;;;;;;;1.60;1.43;;;;;;;15.39;89.08;100944.38;5074062;28;20512;-73
2022/06/21 06:41:54;;;;;;;2.53;1.73;;;;;;;15.38;86.99;100940.84;5074046;28;20591;-76
2022/06/21 06:44:22;;;;;;;2.27;2.03;;;;;;;15.24;87.72;100942.97;5073430;28;20484;-76
2022/06/21 06:46:52;;;;;;;5.20;1.70;;;;;;;15.25;88.40;100947.31;5073532;28;20827;-76
2022/06/21 06:49:23;;;;;;;12.93;2.57;;;;;;;15.39;87.83;100956.09;5073531;28;20997;-75
2022/06/21 06:52:01;;;;;;;6.30;2.10;;;;;;;15.38;87.31;100951.78;5073685;28;20471;-74
2022/06/21 06:54:37;;;;;;;5.93;1.93;;;;;;;15.45;84.07;100956.75;5073819;28;20453;-76
2022/06/21 06:57:12;;;;;;;1.50;1.37;;;;;;;15.52;83.09;100953.50;5073262;28;20564;-74
2022/06/21 06:59:39;;;;;;;7.10;2.03;;;;;;;15.57;83.41;100953.34;5073452;28;20453;-74
2022/06/21 07:02:18;;;;;;;8.83;1.87;;;;;;;15.57;82.46;100945.94;5073515;28;20525;-74
2022/06/21 07:04:50;;;;;;;1.93;1.30;;;;;;;15.65;84.32;100952.53;5072689;28;20493;-73
2022/06/21 07:07:24;;;;;;;1.97;1.37;;;;;;;15.72;83.00;100957.53;5073495;28;20426;-74
2022/06/21 07:09:55;;;;;;;2.17;1.30;;;;;;;15.73;81.48;100950.91;5073473;28;20426;-73
2022/06/21 07:12:26;;;;;;;1.90;1.30;;;;;;;15.78;82.52;100962.47;5073184;28;20418;-73
2022/06/21 07:14:54;;;;;;;16.57;2.07;;;;;;;15.96;80.43;100954.19;5073362;28;20514;-74
2022/06/21 07:17:31;;;;;;;3.57;1.00;;;;;;;16.06;80.33;100948.34;5073150;28;20485;-73
2022/06/21 07:20:00;;;;;;;1.77;1.20;;;;;;;16.17;76.65;100949.59;5073353;28;20433;-74
2022/06/21 07:22:31;;;;;;;1.83;1.00;;;;;;;16.35;76.91;100951.09;5073318;28;20506;-74
2022/06/21 07:25:06;;;;;;;1.40;0.87;;;;;;;16.51;77.32;100953.25;5073258;28;20480;-75
2022/06/21 07:27:36;;;;;;;1.30;1.10;;;;;;;16.67;74.77;100951.53;5073103;28;20453;-73
2022/06/21 07:30:07;;;;;;;3.53;1.90;;;;;;;16.81;75.79;100951.28;5072950;28;20429;-73
2022/06/21 07:32:40;;;;;;;1.20;0.97;;;;;;;16.93;75.47;100951.38;5072961;28;20449;-73
2022/06/21 07:35:13;;;;;;;2.20;1.67;;;;;;;17.03;70.45;100947.41;5073096;28;20460;-75
2022/06/21 07:37:44;;;;;;;4.63;1.13;;;;;;;17.11;73.90;100938.31;5073164;28;20429;-73
2022/06/21 07:40:18;;;;;;;1.40;1.03;;;;;;;17.19;67.34;100931.97;5073237;28;20491;-74
2022/06/21 07:42:54;;;;;;;4.93;1.00;;;;;;;17.12;68.04;100937.97;5073254;28;20508;-75
2022/06/21 07:45:26;;;;;;;2.40;1.23;;;;;;;17.07;64.82;100932.72;5073141;28;20528;-77
2022/06/21 07:47:57;;;;;;;1.53;0.90;;;;;;;17.19;68.24;100933.91;5074077;28;20600;-78
2022/06/21 07:50:32;;;;;;;2.13;0.67;;;;;;;17.30;64.61;100935.88;5073701;28;20512;-75
2022/06/21 07:53:04;;;;;;;2.10;0.90;;;;;;;17.43;65.41;100933.19;5073077;28;20439;-77
2022/06/21 07:55:38;;;;;;;7.60;1.67;;;;;;;17.51;62.88;100937.75;5072935;28;20474;-75
2022/06/21 07:58:10;;;;;;;2.30;1.17;;;;;;;17.55;63.47;100928.53;5073208;28;20426;-76
2022/06/21 08:09:13;;;;;;;3.10;1.10;;;;;;;17.88;61.93;100952.34;5073172;28;20409;-76
2022/06/21 08:11:42;;;;;;;1.47;0.77;;;;;;;17.94;67.28;100947.47;5072553;28;20421;-76
2022/06/21 08:14:10;;;;;;;3.67;1.20;;;;;;;17.94;60.94;100955.69;5073607;28;20508;-77
2022/06/21 08:16:43;;;;;;;2.67;1.13;;;;;;;17.93;60.30;100960.38;5075155;28;20513;-77
2022/06/21 08:19:15;;;;;;;3.33;1.20;;;;;;;17.95;62.28;100960.81;5076707;28;20918;-77
2022/06/21 08:21:48;;;;;;;1.67;0.90;;;;;;;18.00;61.53;100954.28;5077428;28;20525;-77
2022/06/21 08:24:20;;;;;;;2.10;1.10;;;;;;;18.06;61.86;100952.91;5077129;28;20492;-76
2022/06/21 08:26:51;;;;;;;1.20;0.93;;;;;;;18.14;62.23;100949.25;5075997;28;20453;-70
2022/06/21 08:29:22;;;;;;;2.30;1.20;;;;;;;18.23;62.11;100949.16;5076388;28;20528;-76
2022/06/21 08:31:55;;;;;;;1.73;0.70;;;;;;;18.31;61.44;100942.75;5076535;28;20430;-76
2022/06/21 08:34:29;;;;;;;2.13;0.73;;;;;;;18.35;62.80;100941.72;5076696;28;20468;-76
2022/06/21 08:37:02;;;;;;;3.43;1.00;;;;;;;18.36;59.27;100943.31;5076447;28;20491;-77
2022/06/21 08:39:35;;;;;;;3.03;0.60;;;;;;;18.52;59.86;100937.13;5076412;28;20489;-77
2022/06/21 08:42:24;;;;;;;1.57;0.90;;;;;;;18.54;62.02;100943.06;5076278;28;20848;-77
2022/06/21 08:45:44;;;;;;;2.20;1.00;;;;;;;18.60;58.51;100942.47;5076039;28;20479;-77
2022/06/21 08:48:56;;;;;;;2.30;1.20;;;;;;;18.72;61.42;100938.13;5075837;28;20529;-73
2022/06/21 08:52:04;;;;;;;0.80;0.57;;;;;;;18.77;60.60;100935.97;5028350;28;20999;-73
2022/06/21 08:54:44;;;;;;;0.80;0.60;;;;;;;18.98;62.53;100929.47;5075795;28;20465;-73
2022/06/21 08:57:18;;;;;;;3.67;1.10;;;;;;;19.02;58.30;100939.41;5075783;28;20465;-75
2022/06/21 08:59:57;;;;;;;3.00;1.27;;;;;;;19.09;63.18;100920.38;5076156;28;20425;-74
2022/06/21 09:02:32;;;;;;;1.33;0.63;;;;;;;19.10;57.55;100929.41;5076092;28;20525;-74
2022/06/21 09:05:16;;;;;;;1.40;0.67;;;;;;;19.20;56.67;100926.16;5075419;28;20502;-75
2022/06/21 09:08:02;;;;;;;1.37;0.70;;;;;;;19.26;57.31;100922.03;5075947;28;20475;-76
2022/06/21 09:10:42;;;;;;;3.50;1.00;;;;;;;19.30;57.89;100930.34;5075769;28;20861;-75
2022/06/21 09:13:23;;;;;;;0.93;0.57;;;;;;;19.42;55.56;100936.56;5075845;28;20509;-75
2022/06/21 09:16:03;;;;;;;1.37;0.93;;;;;;;19.49;55.06;100924.19;5075573;28;20437;-76
2022/06/21 09:18:47;;;;;;;3.23;0.90;;;;;;;19.44;55.07;100928.00;5075599;28;20437;-76
2022/06/21 09:21:25;;;;;;;7.03;0.90;;;;;;;19.52;55.42;100926.19;5075475;28;20468;-76
2022/06/21 09:24:00;;;;;;;1.33;0.70;;;;;;;19.63;53.45;100927.31;5075310;28;20838;-74
2022/06/21 09:26:44;;;;;;;1.23;0.70;;;;;;;19.63;53.23;100933.59;5075586;28;20456;-75
2022/06/21 09:29:24;;;;;;;0.70;0.70;;;;;;;19.82;54.32;100937.59;5074831;28;20808;-74
2022/06/21 09:32:03;;;;;;;1.30;0.90;;;;;;;19.94;55.37;100931.22;5075033;28;20430;-72
2022/06/21 09:34:38;;;;;;;2.10;1.00;;;;;;;20.01;56.97;100931.38;5075674;28;20547;-75
2022/06/21 09:37:16;;;;;;;3.43;0.97;;;;;;;20.09;56.48;100931.19;5075359;28;20464;-77
2022/06/21 09:39:53;;;;;;;1.33;1.03;;;;;;;20.24;57.79;100935.09;5075033;28;20934;-74
2022/06/21 09:42:29;;;;;;;1.37;1.00;;;;;;;20.36;54.92;100934.97;5075230;28;20525;-75
2022/06/21 09:45:09;;;;;;;2.50;1.17;;;;;;;20.45;55.19;100937.50;5074580;28;20487;-73
2022/06/21 09:47:51;;;;;;;6.10;0.97;;;;;;;20.60;54.28;100941.41;5074697;28;20475;-73
2022/06/21 09:50:24;;;;;;;1.60;0.60;;;;;;;20.66;53.75;100938.00;5074900;28;20428;-73
2022/06/21 09:53:01;;;;;;;0.87;0.70;;;;;;;20.59;51.92;100937.06;5074465;28;20466;-73
2022/06/21 09:55:47;;;;;;;3.00;1.20;;;;;;;20.53;53.26;100936.53;5074397;28;20950;-75
2022/06/21 09:58:24;;;;;;;1.67;0.97;;;;;;;20.52;52.13;100934.94;5074303;28;20432;-71
2022/06/21 10:01:02;;;;;;;1.83;0.70;;;;;;;20.63;52.96;100935.19;5074685;28;20421;-75
2022/06/21 10:03:39;;;;;;;0.93;0.77;;;;;;;20.66;52.80;100931.69;5074384;28;20495;-72
2022/06/21 10:06:12;;;;;;;1.80;0.93;;;;;;;20.76;53.21;100936.66;5074345;28;20434;-73
2022/06/21 10:08:56;;;;;;;0.97;0.70;;;;;;;20.86;53.31;100936.06;5074580;28;20919;-75
2022/06/21 10:11:33;;;;;;;3.30;1.03;;;;;;;20.94;52.89;100937.03;5074688;28;20810;-74
2022/06/21 10:14:24;;;;;;;2.33;0.80;;;;;;;21.00;52.78;100932.81;5074044;28;20463;-75
2022/06/21 10:17:13;;;;;;;3.00;0.77;;;;;;;21.04;52.47;100927.38;5074358;28;20560;-76
2022/06/21 10:19:55;;;;;;;0.80;0.67;;;;;;;21.12;50.01;100929.09;5074437;28;20441;-75
2022/06/21 10:22:37;;;;;;;2.87;0.73;;;;;;;21.22;50.72;100922.19;5073880;28;20923;-73
2022/06/21 10:25:29;;;;;;;0.97;0.60;;;;;;;21.27;48.76;100941.19;5075647;28;20542;-76
2022/06/21 10:28:40;;;;;;;1.30;0.80;;;;;;;21.34;50.43;100941.38;5074092;28;20465;-75
2022/06/21 10:31:37;;;;;;;1.03;0.73;;;;;;;21.45;50.21;100938.78;5074045;28;20460;-75
2022/06/21 10:34:36;;;;;;;1.53;0.73;;;;;;;21.53;49.25;100935.78;5053460;28;20880;-72
2022/06/21 10:37:23;;;;;;;1.37;1.00;;;;;;;21.63;48.13;100942.66;5073991;28;20528;-75
2022/06/21 10:40:22;;;;;;;1.30;1.00;;;;;;;21.70;47.95;100937.28;5069378;28;20972;-75
2022/06/21 10:43:21;;;;;;;1.30;0.90;;;;;;;21.86;47.90;100939.88;5073855;28;20525;-76
2022/06/21 10:45:51;;;;;;;1.63;1.00;;;;;;;21.93;48.01;100937.25;5073312;28;20429;-75
2022/06/21 10:48:44;;;;;;;0.80;0.47;;;;;;;22.12;48.48;100936.38;5074037;28;20507;-76
2022/06/21 10:51:22;;;;;;;0.90;0.70;;;;;;;22.26;49.69;100944.09;5073714;28;20437;-70
2022/06/21 10:54:06;;;;;;;1.50;0.80;;;;;;;22.20;44.18;100938.09;5073895;28;20460;-71
2022/06/21 11:02:46;;;;;;;2.63;0.70;;;;;;;22.58;46.77;100944.56;5073540;28;20409;-75
2022/06/21 11:05:18;;;;;;;1.00;0.60;;;;;;;22.60;46.32;100943.00;5074940;28;20476;-70
2022/06/21 11:07:55;;;;;;;2.03;0.90;;;;;;;22.75;43.53;100924.63;5073228;28;20546;-72
2022/06/21 11:10:26;;;;;;;3.80;0.87;;;;;;;22.73;45.64;100932.50;5073590;28;20517;-72
2022/06/21 11:12:56;;;;;;;1.57;0.77;;;;;;;22.03;45.89;100938.59;5073737;28;20432;-70
2022/06/21 11:15:34;;;;;;;1.00;0.60;;;;;;;21.71;45.52;100932.56;5073255;28;20478;-71
2022/06/21 11:18:11;;;;;;;0.90;0.50;;;;;;;21.64;45.57;100933.22;5072981;28;20469;-70
2022/06/21 11:20:49;;;;;;;1.30;0.70;;;;;;;21.86;46.02;100926.88;5073358;28;20523;-70
2022/06/21 11:23:27;;;;;;;0.70;0.50;;;;;;;22.14;46.20;100934.06;5073321;28;20453;-69
2022/06/21 11:26:11;;;;;;;0.80;0.60;;;;;;;22.41;43.03;100943.13;5073241;28;20513;-70
2022/06/21 11:28:49;;;;;;;1.00;0.70;;;;;;;22.87;43.41;100932.69;5073164;28;20436;-71
2022/06/21 11:31:22;;;;;;;0.67;0.47;;;;;;;23.32;42.16;100930.84;5073032;28;20520;-71
2022/06/21 11:34:05;;;;;;;1.80;0.73;;;;;;;23.69;45.49;100927.28;5073241;28;20548;-70
2022/06/21 11:36:46;;;;;;;2.20;0.80;;;;;;;24.34;43.74;100934.84;5073086;28;20433;-72
2022/06/21 11:39:28;;;;;;;0.87;0.63;;;;;;;24.61;40.30;100937.41;5072891;28;20487;-72
2022/06/21 11:42:08;;;;;;;0.77;0.60;;;;;;;25.05;39.56;100939.97;5072809;28;20425;-71
2022/06/21 11:44:57;;;;;;;0.73;0.50;;;;;;;25.22;39.56;100943.22;5072860;28;21067;-72
2022/06/21 11:47:35;;;;;;;0.80;0.60;;;;;;;25.15;37.22;100938.47;5073183;28;20426;-72
2022/06/21 11:50:11;;;;;;;0.70;0.50;;;;;;;25.55;38.47;100931.78;5073143;28;20875;-72
2022/06/21 11:53:08;;;;;;;1.10;0.67;;;;;;;25.95;36.09;100932.63;5075899;28;20997;-72
2022/06/21 11:55:44;;;;;;;0.73;0.40;;;;;;;25.83;36.62;100936.56;5073465;28;20862;-73
2022/06/21 11:58:22;;;;;;;1.47;0.70;;;;;;;25.72;36.97;100932.19;5076915;28;20572;-74
2022/06/21 12:00:54;;;;;;;0.80;0.50;;;;;;;25.99;36.60;100935.41;5076809;28;20930;-72
2022/06/21 12:03:39;;;;;;;2.03;0.57;;;;;;;26.32;37.11;100929.38;5076939;28;20560;-73
2022/06/21 12:06:11;;;;;;;2.20;0.87;;;;;;;26.40;36.51;100939.28;5076895;28;20547;-73
2022/06/21 12:08:49;;;;;;;1.90;0.60;;;;;;;26.50;35.66;100940.47;5076801;28;20846;-72
2022/06/21 12:11:26;;;;;;;1.30;0.70;;;;;;;26.50;35.56;100934.13;5076722;28;20429;-72
2022/06/21 12:14:07;;;;;;;0.70;0.53;;;;;;;26.88;38.61;100930.41;5076497;28;20461;-73